sensor_id;sensor_type;location;lat;lon;timestamp;temperature;humidity
25046;DHT22;13044;49.304;12.840;2023-04-03T00:01:10;4.40;99.90
25046;DHT22;13044;49.304;12.840;2023-04-03T00:03:37;4.50;99.90
25046;DHT22;13044;49.304;12.840;2023-04-03T00:06:05;4.50;99.90
25046;DHT22;13044;49.304;12.840;2023-04-03T00:08:37;4.50;99.90
25046;DHT22;13044;49.304;12.840;2023-04-03T00:11:04;4.60;99.90
25046;DHT22;13044;49.304;12.840;2023-04-03T00:13:32;4.60;99.90
25046;DHT22;13044;49.304;12.840;2023-04-03T00:16:00;4.50;99.90
25046;DHT22;13044;49.304;12.840;2023-04-03T00:18:27;4.40;99.90
25046;DHT22;13044;49.304;12.840;2023-04-03T00:20:54;4.50;99.90
25046;DHT22;13044;49.304;12.840;2023-04-03T00:23:21;4.50;99.90
25046;DHT22;13044;49.304;12.840;2023-04-03T00:25:51;4.50;99.90
25046;DHT22;13044;49.304;12.840;2023-04-03T00:28:18;4.40;99.90
25046;DHT22;13044;49.304;12.840;2023-04-03T00:30:45;4.50;99.90
25046;DHT22;13044;49.304;12.840;2023-04-03T00:33:12;4.40;99.90
25046;DHT22;13044;49.304;12.840;2023-04-03T00:35:40;4.40;99.90
25046;DHT22;13044;49.304;12.840;2023-04-03T00:38:07;4.40;99.90
25046;DHT22;13044;49.304;12.840;2023-04-03T00:40:37;4.30;99.90
25046;DHT22;13044;49.304;12.840;2023-04-03T00:43:13;4.30;99.90
25046;DHT22;13044;49.304;12.840;2023-04-03T00:45:47;4.30;99.90
25046;DHT22;13044;49.304;12.840;2023-04-03T00:48:31;4.30;99.90
25046;DHT22;13044;49.304;12.840;2023-04-03T00:51:01;4.30;99.90
25046;DHT22;13044;49.304;12.840;2023-04-03T00:53:37;4.30;99.90
25046;DHT22;13044;49.304;12.840;2023-04-03T00:56:10;4.30;99.90
25046;DHT22;13044;49.304;12.840;2023-04-03T00:58:48;4.30;99.90
25046;DHT22;13044;49.304;12.840;2023-04-03T01:01:21;4.30;99.90
25046;DHT22;13044;49.304;12.840;2023-04-03T01:03:51;4.30;99.90
25046;DHT22;13044;49.304;12.840;2023-04-03T01:06:23;4.30;99.90
25046;DHT22;13044;49.304;12.840;2023-04-03T01:08:53;4.30;99.90
25046;DHT22;13044;49.304;12.840;2023-04-03T01:11:21;4.30;99.90
25046;DHT22;13044;49.304;12.840;2023-04-03T01:13:48;4.30;99.90
25046;DHT22;13044;49.304;12.840;2023-04-03T01:16:16;4.30;99.90
25046;DHT22;13044;49.304;12.840;2023-04-03T01:18:44;4.30;99.90
25046;DHT22;13044;49.304;12.840;2023-04-03T01:24:05;4.20;99.90
25046;DHT22;13044;49.304;12.840;2023-04-03T01:26:41;4.30;99.90
25046;DHT22;13044;49.304;12.840;2023-04-03T01:29:09;4.20;99.90
25046;DHT22;13044;49.304;12.840;2023-04-03T01:34:18;4.30;99.90
25046;DHT22;13044;49.304;12.840;2023-04-03T01:36:46;4.20;99.90
25046;DHT22;13044;49.304;12.840;2023-04-03T01:39:13;4.20;99.90
25046;DHT22;13044;49.304;12.840;2023-04-03T01:41:40;4.20;99.90
25046;DHT22;13044;49.304;12.840;2023-04-03T01:44:07;4.20;99.90
25046;DHT22;13044;49.304;12.840;2023-04-03T01:46:35;4.20;99.90
25046;DHT22;13044;49.304;12.840;2023-04-03T01:49:02;4.30;99.90
25046;DHT22;13044;49.304;12.840;2023-04-03T01:51:29;4.30;99.90
25046;DHT22;13044;49.304;12.840;2023-04-03T01:53:56;4.30;99.90
25046;DHT22;13044;49.304;12.840;2023-04-03T01:56:23;4.30;99.90
25046;DHT22;13044;49.304;12.840;2023-04-03T01:58:50;4.30;99.90
25046;DHT22;13044;49.304;12.840;2023-04-03T02:01:17;4.20;99.90
25046;DHT22;13044;49.304;12.840;2023-04-03T02:03:44;4.30;99.90
25046;DHT22;13044;49.304;12.840;2023-04-03T02:06:11;4.30;99.90
25046;DHT22;13044;49.304;12.840;2023-04-03T02:08:38;4.30;99.90
25046;DHT22;13044;49.304;12.840;2023-04-03T02:11:05;4.20;99.90
25046;DHT22;13044;49.304;12.840;2023-04-03T02:13:32;4.20;99.90
25046;DHT22;13044;49.304;12.840;2023-04-03T02:15:59;4.10;99.90
25046;DHT22;13044;49.304;12.840;2023-04-03T02:18:26;4.10;99.90
25046;DHT22;13044;49.304;12.840;2023-04-03T02:20:52;4.20;99.90
25046;DHT22;13044;49.304;12.840;2023-04-03T02:23:19;4.30;99.90
25046;DHT22;13044;49.304;12.840;2023-04-03T02:25:46;4.20;99.90
25046;DHT22;13044;49.304;12.840;2023-04-03T02:28:15;4.30;99.90
25046;DHT22;13044;49.304;12.840;2023-04-03T02:30:42;4.20;99.90
25046;DHT22;13044;49.304;12.840;2023-04-03T02:33:09;4.20;99.90
25046;DHT22;13044;49.304;12.840;2023-04-03T02:35:36;4.20;99.90
25046;DHT22;13044;49.304;12.840;2023-04-03T02:38:03;4.10;99.90
25046;DHT22;13044;49.304;12.840;2023-04-03T02:40:30;4.20;99.90
25046;DHT22;13044;49.304;12.840;2023-04-03T02:42:57;4.20;99.90
25046;DHT22;13044;49.304;12.840;2023-04-03T02:45:23;4.30;99.90
25046;DHT22;13044;49.304;12.840;2023-04-03T02:47:50;4.30;99.90
25046;DHT22;13044;49.304;12.840;2023-04-03T02:50:17;4.20;99.90
25046;DHT22;13044;49.304;12.840;2023-04-03T02:52:44;4.20;99.90
25046;DHT22;13044;49.304;12.840;2023-04-03T02:55:14;4.20;99.90
25046;DHT22;13044;49.304;12.840;2023-04-03T02:57:42;4.20;99.90
25046;DHT22;13044;49.304;12.840;2023-04-03T03:00:09;4.30;99.90
25046;DHT22;13044;49.304;12.840;2023-04-03T03:02:36;4.30;99.90
25046;DHT22;13044;49.304;12.840;2023-04-03T03:05:03;4.30;99.90
25046;DHT22;13044;49.304;12.840;2023-04-03T03:07:31;4.40;99.90
25046;DHT22;13044;49.304;12.840;2023-04-03T03:09:58;4.40;99.90
25046;DHT22;13044;49.304;12.840;2023-04-03T03:12:25;4.40;99.90
25046;DHT22;13044;49.304;12.840;2023-04-03T03:14:51;4.40;99.90
25046;DHT22;13044;49.304;12.840;2023-04-03T03:17:18;4.30;99.90
25046;DHT22;13044;49.304;12.840;2023-04-03T03:19:45;4.20;99.90
25046;DHT22;13044;49.304;12.840;2023-04-03T03:22:12;4.30;99.90
25046;DHT22;13044;49.304;12.840;2023-04-03T03:24:39;4.20;99.90
25046;DHT22;13044;49.304;12.840;2023-04-03T03:27:06;4.30;99.90
25046;DHT22;13044;49.304;12.840;2023-04-03T03:29:33;4.30;99.90
25046;DHT22;13044;49.304;12.840;2023-04-03T03:31:59;4.30;99.90
25046;DHT22;13044;49.304;12.840;2023-04-03T03:34:26;4.40;99.90
25046;DHT22;13044;49.304;12.840;2023-04-03T03:36:53;4.40;99.90
25046;DHT22;13044;49.304;12.840;2023-04-03T03:39:20;4.30;99.90
25046;DHT22;13044;49.304;12.840;2023-04-03T03:41:47;4.40;99.90
25046;DHT22;13044;49.304;12.840;2023-04-03T03:44:16;4.40;99.90
25046;DHT22;13044;49.304;12.840;2023-04-03T03:46:42;4.30;99.90
25046;DHT22;13044;49.304;12.840;2023-04-03T03:49:09;4.30;99.90
25046;DHT22;13044;49.304;12.840;2023-04-03T03:51:38;4.20;99.90
25046;DHT22;13044;49.304;12.840;2023-04-03T03:54:05;4.20;99.90
25046;DHT22;13044;49.304;12.840;2023-04-03T03:56:33;4.20;99.90
25046;DHT22;13044;49.304;12.840;2023-04-03T03:59:00;4.20;99.90
25046;DHT22;13044;49.304;12.840;2023-04-03T04:01:27;4.10;99.90
25046;DHT22;13044;49.304;12.840;2023-04-03T04:03:54;4.10;99.90
25046;DHT22;13044;49.304;12.840;2023-04-03T04:06:22;4.20;99.90
25046;DHT22;13044;49.304;12.840;2023-04-03T04:08:49;4.20;99.90
25046;DHT22;13044;49.304;12.840;2023-04-03T04:11:16;4.10;99.90
25046;DHT22;13044;49.304;12.840;2023-04-03T04:13:43;4.20;99.90
25046;DHT22;13044;49.304;12.840;2023-04-03T04:16:10;4.20;99.90
25046;DHT22;13044;49.304;12.840;2023-04-03T04:18:36;4.20;99.90
25046;DHT22;13044;49.304;12.840;2023-04-03T04:21:03;4.10;99.90
25046;DHT22;13044;49.304;12.840;2023-04-03T04:23:30;4.10;99.90
25046;DHT22;13044;49.304;12.840;2023-04-03T04:25:57;4.00;99.90
25046;DHT22;13044;49.304;12.840;2023-04-03T04:28:24;4.00;99.90
25046;DHT22;13044;49.304;12.840;2023-04-03T04:30:51;4.00;99.90
25046;DHT22;13044;49.304;12.840;2023-04-03T04:33:18;4.00;99.90
25046;DHT22;13044;49.304;12.840;2023-04-03T04:35:47;4.00;99.90
25046;DHT22;13044;49.304;12.840;2023-04-03T04:38:15;4.00;99.90
25046;DHT22;13044;49.304;12.840;2023-04-03T04:40:41;4.00;99.90
25046;DHT22;13044;49.304;12.840;2023-04-03T04:43:08;3.90;99.90
25046;DHT22;13044;49.304;12.840;2023-04-03T04:45:37;4.00;99.90
25046;DHT22;13044;49.304;12.840;2023-04-03T04:48:04;4.00;99.90
25046;DHT22;13044;49.304;12.840;2023-04-03T04:50:31;4.10;99.90
25046;DHT22;13044;49.304;12.840;2023-04-03T04:52:58;4.00;99.90
25046;DHT22;13044;49.304;12.840;2023-04-03T04:55:25;4.00;99.90
25046;DHT22;13044;49.304;12.840;2023-04-03T04:57:52;4.10;99.90
25046;DHT22;13044;49.304;12.840;2023-04-03T05:00:19;4.10;99.90
25046;DHT22;13044;49.304;12.840;2023-04-03T05:02:46;4.10;99.90
25046;DHT22;13044;49.304;12.840;2023-04-03T05:05:13;4.10;99.90
25046;DHT22;13044;49.304;12.840;2023-04-03T05:07:40;4.10;99.90
25046;DHT22;13044;49.304;12.840;2023-04-03T05:10:08;4.10;99.90
25046;DHT22;13044;49.304;12.840;2023-04-03T05:12:36;4.10;99.90
25046;DHT22;13044;49.304;12.840;2023-04-03T05:15:03;4.10;99.90
25046;DHT22;13044;49.304;12.840;2023-04-03T05:17:30;4.10;99.90
25046;DHT22;13044;49.304;12.840;2023-04-03T05:19:57;4.20;99.90
25046;DHT22;13044;49.304;12.840;2023-04-03T05:22:24;4.10;99.90
25046;DHT22;13044;49.304;12.840;2023-04-03T05:24:50;4.10;99.90
25046;DHT22;13044;49.304;12.840;2023-04-03T05:27:17;4.10;99.90
25046;DHT22;13044;49.304;12.840;2023-04-03T05:29:44;4.10;99.90
25046;DHT22;13044;49.304;12.840;2023-04-03T05:32:11;4.10;99.90
25046;DHT22;13044;49.304;12.840;2023-04-03T05:34:38;4.00;99.90
25046;DHT22;13044;49.304;12.840;2023-04-03T05:37:05;4.00;99.90
25046;DHT22;13044;49.304;12.840;2023-04-03T05:39:32;4.00;99.90
25046;DHT22;13044;49.304;12.840;2023-04-03T05:41:59;4.00;99.90
25046;DHT22;13044;49.304;12.840;2023-04-03T05:44:26;4.00;99.90
25046;DHT22;13044;49.304;12.840;2023-04-03T05:46:53;4.00;99.90
25046;DHT22;13044;49.304;12.840;2023-04-03T05:49:20;3.90;99.90
25046;DHT22;13044;49.304;12.840;2023-04-03T05:51:47;3.90;99.90
25046;DHT22;13044;49.304;12.840;2023-04-03T05:54:25;4.00;99.90
25046;DHT22;13044;49.304;12.840;2023-04-03T05:56:53;3.70;99.90
25046;DHT22;13044;49.304;12.840;2023-04-03T05:59:20;3.60;99.90
25046;DHT22;13044;49.304;12.840;2023-04-03T06:01:48;3.60;99.90
25046;DHT22;13044;49.304;12.840;2023-04-03T06:04:15;3.60;99.90
25046;DHT22;13044;49.304;12.840;2023-04-03T06:06:48;3.50;99.90
25046;DHT22;13044;49.304;12.840;2023-04-03T06:09:21;3.50;99.90
25046;DHT22;13044;49.304;12.840;2023-04-03T06:11:48;3.50;99.90
25046;DHT22;13044;49.304;12.840;2023-04-03T06:14:15;3.50;99.90
25046;DHT22;13044;49.304;12.840;2023-04-03T06:16:42;3.60;99.90
25046;DHT22;13044;49.304;12.840;2023-04-03T06:19:10;3.60;99.90
25046;DHT22;13044;49.304;12.840;2023-04-03T06:21:38;3.60;99.90
25046;DHT22;13044;49.304;12.840;2023-04-03T06:24:06;3.60;99.90
25046;DHT22;13044;49.304;12.840;2023-04-03T06:26:34;3.50;99.90
25046;DHT22;13044;49.304;12.840;2023-04-03T06:29:01;3.60;99.90
25046;DHT22;13044;49.304;12.840;2023-04-03T06:31:29;3.70;99.90
25046;DHT22;13044;49.304;12.840;2023-04-03T06:33:56;3.70;99.90
25046;DHT22;13044;49.304;12.840;2023-04-03T06:36:23;3.70;99.90
25046;DHT22;13044;49.304;12.840;2023-04-03T06:38:50;3.70;99.90
25046;DHT22;13044;49.304;12.840;2023-04-03T06:41:17;3.70;99.90
25046;DHT22;13044;49.304;12.840;2023-04-03T06:43:44;3.70;99.90
25046;DHT22;13044;49.304;12.840;2023-04-03T06:46:20;3.60;99.90
25046;DHT22;13044;49.304;12.840;2023-04-03T06:48:49;3.70;99.90
25046;DHT22;13044;49.304;12.840;2023-04-03T06:51:23;3.60;99.90
25046;DHT22;13044;49.304;12.840;2023-04-03T06:53:58;3.60;99.90
25046;DHT22;13044;49.304;12.840;2023-04-03T06:56:26;3.80;99.90
25046;DHT22;13044;49.304;12.840;2023-04-03T06:58:55;3.80;99.90
25046;DHT22;13044;49.304;12.840;2023-04-03T07:01:28;3.80;99.90
25046;DHT22;13044;49.304;12.840;2023-04-03T07:03:56;3.70;99.90
25046;DHT22;13044;49.304;12.840;2023-04-03T07:06:23;3.80;99.90
25046;DHT22;13044;49.304;12.840;2023-04-03T07:08:54;3.90;99.90
25046;DHT22;13044;49.304;12.840;2023-04-03T07:11:21;3.80;99.90
25046;DHT22;13044;49.304;12.840;2023-04-03T07:13:49;3.90;99.90
25046;DHT22;13044;49.304;12.840;2023-04-03T07:16:17;4.00;99.90
25046;DHT22;13044;49.304;12.840;2023-04-03T07:18:44;4.20;99.90
25046;DHT22;13044;49.304;12.840;2023-04-03T07:21:12;4.40;99.90
25046;DHT22;13044;49.304;12.840;2023-04-03T07:23:40;4.40;99.90
25046;DHT22;13044;49.304;12.840;2023-04-03T07:26:07;4.30;99.90
25046;DHT22;13044;49.304;12.840;2023-04-03T07:28:34;4.30;99.90
25046;DHT22;13044;49.304;12.840;2023-04-03T07:31:05;4.30;99.90
25046;DHT22;13044;49.304;12.840;2023-04-03T07:33:35;4.30;99.90
25046;DHT22;13044;49.304;12.840;2023-04-03T07:36:02;4.30;99.90
25046;DHT22;13044;49.304;12.840;2023-04-03T07:38:31;4.50;99.90
25046;DHT22;13044;49.304;12.840;2023-04-03T07:40:58;4.60;99.90
25046;DHT22;13044;49.304;12.840;2023-04-03T07:43:25;4.90;99.90
25046;DHT22;13044;49.304;12.840;2023-04-03T07:45:52;4.90;99.90
25046;DHT22;13044;49.304;12.840;2023-04-03T07:48:22;5.00;99.90
25046;DHT22;13044;49.304;12.840;2023-04-03T07:50:51;5.10;99.90
25046;DHT22;13044;49.304;12.840;2023-04-03T07:53:18;5.10;99.90
25046;DHT22;13044;49.304;12.840;2023-04-03T07:55:47;5.10;99.90
25046;DHT22;13044;49.304;12.840;2023-04-03T07:58:17;5.20;99.90
25046;DHT22;13044;49.304;12.840;2023-04-03T08:00:45;5.20;99.90
25046;DHT22;13044;49.304;12.840;2023-04-03T08:03:13;5.30;99.90
25046;DHT22;13044;49.304;12.840;2023-04-03T08:05:42;5.30;99.90
25046;DHT22;13044;49.304;12.840;2023-04-03T08:08:12;5.40;99.90
25046;DHT22;13044;49.304;12.840;2023-04-03T08:10:40;5.50;99.90
25046;DHT22;13044;49.304;12.840;2023-04-03T08:13:07;5.30;99.90
25046;DHT22;13044;49.304;12.840;2023-04-03T08:15:35;5.30;99.90
25046;DHT22;13044;49.304;12.840;2023-04-03T08:18:03;5.30;99.90
25046;DHT22;13044;49.304;12.840;2023-04-03T08:20:31;5.10;99.90
25046;DHT22;13044;49.304;12.840;2023-04-03T08:22:57;5.00;99.90
25046;DHT22;13044;49.304;12.840;2023-04-03T08:25:24;4.90;99.90
25046;DHT22;13044;49.304;12.840;2023-04-03T08:27:51;4.80;99.90
25046;DHT22;13044;49.304;12.840;2023-04-03T08:30:18;4.70;99.90
25046;DHT22;13044;49.304;12.840;2023-04-03T08:32:46;4.80;99.90
25046;DHT22;13044;49.304;12.840;2023-04-03T08:35:13;4.90;96.60
25046;DHT22;13044;49.304;12.840;2023-04-03T08:37:40;4.80;93.90
25046;DHT22;13044;49.304;12.840;2023-04-03T08:40:10;4.70;98.60
25046;DHT22;13044;49.304;12.840;2023-04-03T08:45:53;5.00;94.40
25046;DHT22;13044;49.304;12.840;2023-04-03T08:48:39;5.10;97.10
25046;DHT22;13044;49.304;12.840;2023-04-03T08:51:15;5.30;91.90
25046;DHT22;13044;49.304;12.840;2023-04-03T08:53:51;5.50;94.40
25046;DHT22;13044;49.304;12.840;2023-04-03T08:56:41;5.70;93.10
25046;DHT22;13044;49.304;12.840;2023-04-03T08:59:15;6.10;94.20
25046;DHT22;13044;49.304;12.840;2023-04-03T09:01:47;6.30;92.10
25046;DHT22;13044;49.304;12.840;2023-04-03T09:04:15;6.40;94.20
25046;DHT22;13044;49.304;12.840;2023-04-03T09:06:50;6.60;91.40
25046;DHT22;13044;49.304;12.840;2023-04-03T09:09:36;6.70;88.70
25046;DHT22;13044;49.304;12.840;2023-04-03T09:12:19;6.50;92.80
25046;DHT22;13044;49.304;12.840;2023-04-03T09:23:59;6.60;92.80
25046;DHT22;13044;49.304;12.840;2023-04-03T09:26:34;6.30;94.00
25046;DHT22;13044;49.304;12.840;2023-04-03T09:29:17;6.10;88.30
25046;DHT22;13044;49.304;12.840;2023-04-03T09:31:48;6.00;93.30
25046;DHT22;13044;49.304;12.840;2023-04-03T09:34:22;6.20;93.70
25046;DHT22;13044;49.304;12.840;2023-04-03T09:36:53;6.20;92.90
25046;DHT22;13044;49.304;12.840;2023-04-03T09:39:24;6.10;92.30
25046;DHT22;13044;49.304;12.840;2023-04-03T09:42:16;6.10;91.80
25046;DHT22;13044;49.304;12.840;2023-04-03T09:45:01;6.20;93.60
25046;DHT22;13044;49.304;12.840;2023-04-03T09:47:33;6.40;94.40
25046;DHT22;13044;49.304;12.840;2023-04-03T09:52:42;6.60;90.90
25046;DHT22;13044;49.304;12.840;2023-04-03T09:55:19;6.40;89.00
25046;DHT22;13044;49.304;12.840;2023-04-03T09:58:01;6.30;92.50
25046;DHT22;13044;49.304;12.840;2023-04-03T10:00:35;6.50;91.50
25046;DHT22;13044;49.304;12.840;2023-04-03T10:03:05;6.30;89.50
25046;DHT22;13044;49.304;12.840;2023-04-03T10:05:49;6.60;91.70
25046;DHT22;13044;49.304;12.840;2023-04-03T10:08:24;7.00;91.40
25046;DHT22;13044;49.304;12.840;2023-04-03T10:11:12;6.90;87.10
25046;DHT22;13044;49.304;12.840;2023-04-03T10:13:54;6.90;82.30
25046;DHT22;13044;49.304;12.840;2023-04-03T10:27:42;6.30;81.10
25046;DHT22;13044;49.304;12.840;2023-04-03T10:33:33;6.30;83.70
25046;DHT22;13044;49.304;12.840;2023-04-03T10:45:15;6.80;82.80
25046;DHT22;13044;49.304;12.840;2023-04-03T10:48:07;6.80;86.70
25046;DHT22;13044;49.304;12.840;2023-04-03T10:51:11;6.50;80.70
25046;DHT22;13044;49.304;12.840;2023-04-03T11:05:07;5.70;80.80
25046;DHT22;13044;49.304;12.840;2023-04-03T11:07:46;5.80;79.40
25046;DHT22;13044;49.304;12.840;2023-04-03T11:10:17;5.80;79.70
25046;DHT22;13044;49.304;12.840;2023-04-03T11:13:01;6.00;77.10
25046;DHT22;13044;49.304;12.840;2023-04-03T11:15:33;6.10;81.30
25046;DHT22;13044;49.304;12.840;2023-04-03T11:18:15;6.50;81.10
25046;DHT22;13044;49.304;12.840;2023-04-03T11:20:53;6.70;78.30
25046;DHT22;13044;49.304;12.840;2023-04-03T11:23:26;6.80;78.10
25046;DHT22;13044;49.304;12.840;2023-04-03T11:26:19;6.70;80.00
25046;DHT22;13044;49.304;12.840;2023-04-03T11:29:04;6.50;75.60
25046;DHT22;13044;49.304;12.840;2023-04-03T11:32:02;6.70;80.10
25046;DHT22;13044;49.304;12.840;2023-04-03T11:34:47;6.80;83.00
25046;DHT22;13044;49.304;12.840;2023-04-03T11:40:24;6.80;85.10
25046;DHT22;13044;49.304;12.840;2023-04-03T11:45:33;6.50;83.00
25046;DHT22;13044;49.304;12.840;2023-04-03T11:50:50;6.80;83.30
25046;DHT22;13044;49.304;12.840;2023-04-03T11:55:59;6.80;82.80
25046;DHT22;13044;49.304;12.840;2023-04-03T11:58:31;6.90;76.50
25046;DHT22;13044;49.304;12.840;2023-04-03T12:01:05;7.10;82.80
25046;DHT22;13044;49.304;12.840;2023-04-03T12:11:28;6.90;76.30
25046;DHT22;13044;49.304;12.840;2023-04-03T12:41:21;7.20;75.80
25046;DHT22;13044;49.304;12.840;2023-04-03T12:46:52;7.10;74.80
25046;DHT22;13044;49.304;12.840;2023-04-03T12:51:55;7.90;75.10
25046;DHT22;13044;49.304;12.840;2023-04-03T12:54:27;8.00;73.90
25046;DHT22;13044;49.304;12.840;2023-04-03T12:57:22;8.00;71.10
25046;DHT22;13044;49.304;12.840;2023-04-03T12:59:51;8.00;76.60
25046;DHT22;13044;49.304;12.840;2023-04-03T13:02:30;8.20;76.70
25046;DHT22;13044;49.304;12.840;2023-04-03T13:05:09;8.50;79.50
25046;DHT22;13044;49.304;12.840;2023-04-03T13:07:42;8.70;76.20
25046;DHT22;13044;49.304;12.840;2023-04-03T13:12:58;8.50;76.80
25046;DHT22;13044;49.304;12.840;2023-04-03T13:15:45;8.40;76.90
25046;DHT22;13044;49.304;12.840;2023-04-03T13:21:01;8.30;80.30
25046;DHT22;13044;49.304;12.840;2023-04-03T13:23:34;8.20;78.30
25046;DHT22;13044;49.304;12.840;2023-04-03T13:26:04;7.90;72.40
25046;DHT22;13044;49.304;12.840;2023-04-03T13:28:33;8.20;77.30
25046;DHT22;13044;49.304;12.840;2023-04-03T13:31:08;8.20;74.40
25046;DHT22;13044;49.304;12.840;2023-04-03T13:36:38;8.10;75.00
25046;DHT22;13044;49.304;12.840;2023-04-03T13:39:23;8.10;76.20
25046;DHT22;13044;49.304;12.840;2023-04-03T13:41:54;8.30;72.20
25046;DHT22;13044;49.304;12.840;2023-04-03T13:47:22;8.60;70.90
25046;DHT22;13044;49.304;12.840;2023-04-03T13:50:01;8.60;68.10
25046;DHT22;13044;49.304;12.840;2023-04-03T13:52:33;8.50;68.80
25046;DHT22;13044;49.304;12.840;2023-04-03T13:55:26;8.40;70.20
25046;DHT22;13044;49.304;12.840;2023-04-03T13:58:01;8.00;71.00
25046;DHT22;13044;49.304;12.840;2023-04-03T14:03:31;8.20;74.10
25046;DHT22;13044;49.304;12.840;2023-04-03T14:06:06;8.10;71.00
25046;DHT22;13044;49.304;12.840;2023-04-03T14:08:35;8.00;72.40
25046;DHT22;13044;49.304;12.840;2023-04-03T14:11:16;8.10;75.80
25046;DHT22;13044;49.304;12.840;2023-04-03T14:13:46;8.00;73.70
25046;DHT22;13044;49.304;12.840;2023-04-03T14:16:19;7.90;71.40
25046;DHT22;13044;49.304;12.840;2023-04-03T14:18:51;7.70;69.20
25046;DHT22;13044;49.304;12.840;2023-04-03T14:21:20;7.50;75.40
25046;DHT22;13044;49.304;12.840;2023-04-03T14:23:48;7.50;74.40
25046;DHT22;13044;49.304;12.840;2023-04-03T14:26:21;7.50;72.20
25046;DHT22;13044;49.304;12.840;2023-04-03T14:28:51;7.60;72.90
25046;DHT22;13044;49.304;12.840;2023-04-03T14:31:20;7.60;76.90
25046;DHT22;13044;49.304;12.840;2023-04-03T14:33:47;7.70;76.10
25046;DHT22;13044;49.304;12.840;2023-04-03T14:36:18;7.80;71.30
25046;DHT22;13044;49.304;12.840;2023-04-03T14:38:48;7.70;75.20
25046;DHT22;13044;49.304;12.840;2023-04-03T14:41:18;7.50;75.90
25046;DHT22;13044;49.304;12.840;2023-04-03T14:43:47;7.40;76.20
25046;DHT22;13044;49.304;12.840;2023-04-03T14:48:45;7.20;73.50
25046;DHT22;13044;49.304;12.840;2023-04-03T14:51:13;7.10;78.10
25046;DHT22;13044;49.304;12.840;2023-04-03T14:53:42;7.00;77.10
25046;DHT22;13044;49.304;12.840;2023-04-03T14:56:14;7.00;75.80
25046;DHT22;13044;49.304;12.840;2023-04-03T14:58:44;7.00;79.90
25046;DHT22;13044;49.304;12.840;2023-04-03T15:01:11;6.90;78.80
25046;DHT22;13044;49.304;12.840;2023-04-03T15:03:40;7.10;73.50
25046;DHT22;13044;49.304;12.840;2023-04-03T15:06:10;7.00;78.60
25046;DHT22;13044;49.304;12.840;2023-04-03T15:08:38;6.80;81.30
25046;DHT22;13044;49.304;12.840;2023-04-03T15:11:08;6.90;78.60
25046;DHT22;13044;49.304;12.840;2023-04-03T15:13:37;6.70;84.30
25046;DHT22;13044;49.304;12.840;2023-04-03T15:16:16;6.50;89.80
25046;DHT22;13044;49.304;12.840;2023-04-03T15:18:44;6.40;82.10
25046;DHT22;13044;49.304;12.840;2023-04-03T15:21:12;6.30;84.10
25046;DHT22;13044;49.304;12.840;2023-04-03T15:23:39;6.20;83.80
25046;DHT22;13044;49.304;12.840;2023-04-03T15:26:06;6.20;85.30
25046;DHT22;13044;49.304;12.840;2023-04-03T15:28:36;6.20;83.00
25046;DHT22;13044;49.304;12.840;2023-04-03T15:31:05;6.20;84.30
25046;DHT22;13044;49.304;12.840;2023-04-03T15:33:33;6.00;88.70
25046;DHT22;13044;49.304;12.840;2023-04-03T15:36:03;6.00;84.90
25046;DHT22;13044;49.304;12.840;2023-04-03T15:38:57;6.00;89.20
25046;DHT22;13044;49.304;12.840;2023-04-03T15:41:31;5.90;87.10
25046;DHT22;13044;49.304;12.840;2023-04-03T15:44:05;6.00;85.80
25046;DHT22;13044;49.304;12.840;2023-04-03T15:46:32;5.90;85.80
25046;DHT22;13044;49.304;12.840;2023-04-03T15:48:59;6.00;86.70
25046;DHT22;13044;49.304;12.840;2023-04-03T15:51:26;5.80;81.60
25046;DHT22;13044;49.304;12.840;2023-04-03T15:53:53;5.80;87.20
25046;DHT22;13044;49.304;12.840;2023-04-03T15:56:21;5.80;88.60
25046;DHT22;13044;49.304;12.840;2023-04-03T15:58:56;5.70;85.00
25046;DHT22;13044;49.304;12.840;2023-04-03T16:01:32;5.70;89.80
25046;DHT22;13044;49.304;12.840;2023-04-03T16:04:07;5.70;84.70
25046;DHT22;13044;49.304;12.840;2023-04-03T16:06:35;5.70;82.50
25046;DHT22;13044;49.304;12.840;2023-04-03T16:09:03;5.70;83.90
25046;DHT22;13044;49.304;12.840;2023-04-03T16:11:30;5.50;80.80
25046;DHT22;13044;49.304;12.840;2023-04-03T16:13:57;5.50;86.00
25046;DHT22;13044;49.304;12.840;2023-04-03T16:16:26;5.50;82.90
25046;DHT22;13044;49.304;12.840;2023-04-03T16:19:01;5.60;83.80
25046;DHT22;13044;49.304;12.840;2023-04-03T16:21:37;5.70;82.60
25046;DHT22;13044;49.304;12.840;2023-04-03T16:24:10;5.50;89.40
25046;DHT22;13044;49.304;12.840;2023-04-03T16:26:37;5.40;86.30
25046;DHT22;13044;49.304;12.840;2023-04-03T16:29:04;5.30;85.80
25046;DHT22;13044;49.304;12.840;2023-04-03T16:31:32;5.20;83.10
25046;DHT22;13044;49.304;12.840;2023-04-03T16:34:00;5.20;88.40
25046;DHT22;13044;49.304;12.840;2023-04-03T16:36:29;5.00;88.80
25046;DHT22;13044;49.304;12.840;2023-04-03T16:39:04;5.10;86.90
25046;DHT22;13044;49.304;12.840;2023-04-03T16:41:41;5.00;88.40
25046;DHT22;13044;49.304;12.840;2023-04-03T16:44:13;5.00;86.60
25046;DHT22;13044;49.304;12.840;2023-04-03T16:46:40;5.00;87.50
25046;DHT22;13044;49.304;12.840;2023-04-03T16:49:07;4.90;90.60
25046;DHT22;13044;49.304;12.840;2023-04-03T16:51:34;5.00;84.10
25046;DHT22;13044;49.304;12.840;2023-04-03T16:54:01;4.90;82.20
25046;DHT22;13044;49.304;12.840;2023-04-03T16:56:30;5.00;84.70
25046;DHT22;13044;49.304;12.840;2023-04-03T16:59:07;5.10;86.90
25046;DHT22;13044;49.304;12.840;2023-04-03T17:01:41;5.00;81.20
25046;DHT22;13044;49.304;12.840;2023-04-03T17:04:16;4.80;85.10
25046;DHT22;13044;49.304;12.840;2023-04-03T17:06:43;4.90;84.70
25046;DHT22;13044;49.304;12.840;2023-04-03T17:09:10;4.80;83.20
25046;DHT22;13044;49.304;12.840;2023-04-03T17:11:38;4.60;81.30
25046;DHT22;13044;49.304;12.840;2023-04-03T17:14:06;4.60;83.70
25046;DHT22;13044;49.304;12.840;2023-04-03T17:16:36;4.60;82.80
25046;DHT22;13044;49.304;12.840;2023-04-03T17:19:12;4.60;82.10
25046;DHT22;13044;49.304;12.840;2023-04-03T17:21:49;4.70;89.90
25046;DHT22;13044;49.304;12.840;2023-04-03T17:24:24;4.70;84.30
25046;DHT22;13044;49.304;12.840;2023-04-03T17:26:51;4.60;85.80
25046;DHT22;13044;49.304;12.840;2023-04-03T17:29:18;4.70;92.90
25046;DHT22;13044;49.304;12.840;2023-04-03T17:31:45;4.70;90.10
25046;DHT22;13044;49.304;12.840;2023-04-03T17:34:12;4.60;83.90
25046;DHT22;13044;49.304;12.840;2023-04-03T17:36:40;4.50;86.40
25046;DHT22;13044;49.304;12.840;2023-04-03T17:39:17;4.50;88.70
25046;DHT22;13044;49.304;12.840;2023-04-03T17:41:52;4.60;90.20
25046;DHT22;13044;49.304;12.840;2023-04-03T17:44:26;4.60;91.40
25046;DHT22;13044;49.304;12.840;2023-04-03T17:46:53;4.70;89.50
25046;DHT22;13044;49.304;12.840;2023-04-03T17:49:19;4.60;91.90
25046;DHT22;13044;49.304;12.840;2023-04-03T17:51:48;4.60;94.20
25046;DHT22;13044;49.304;12.840;2023-04-03T17:54:15;4.60;90.30